sensor_id;sensor_type;location;lat;lon;timestamp;P1;durP1;ratioP1;P2;durP2;ratioP2
15293;SDS011;7748;52.474;13.454;2022-12-07T00:01:41;16.07;;;9.20;;
15293;SDS011;7748;52.474;13.454;2022-12-07T00:04:13;14.33;;;8.30;;
15293;SDS011;7748;52.474;13.454;2022-12-07T00:06:44;13.93;;;8.63;;
15293;SDS011;7748;52.474;13.454;2022-12-07T00:09:15;16.73;;;9.43;;
15293;SDS011;7748;52.474;13.454;2022-12-07T00:11:48;14.07;;;8.40;;
15293;SDS011;7748;52.474;13.454;2022-12-07T00:14:17;13.60;;;8.50;;
15293;SDS011;7748;52.474;13.454;2022-12-07T00:16:46;14.47;;;8.03;;
15293;SDS011;7748;52.474;13.454;2022-12-07T00:19:19;14.70;;;9.00;;
15293;SDS011;7748;52.474;13.454;2022-12-07T00:21:54;13.23;;;7.50;;
15293;SDS011;7748;52.474;13.454;2022-12-07T00:24:23;14.33;;;7.80;;
15293;SDS011;7748;52.474;13.454;2022-12-07T00:26:52;10.97;;;7.17;;
15293;SDS011;7748;52.474;13.454;2022-12-07T00:29:20;13.43;;;8.80;;
15293;SDS011;7748;52.474;13.454;2022-12-07T00:31:51;12.03;;;8.00;;
15293;SDS011;7748;52.474;13.454;2022-12-07T00:34:20;15.27;;;8.67;;
15293;SDS011;7748;52.474;13.454;2022-12-07T00:36:49;11.50;;;7.13;;
15293;SDS011;7748;52.474;13.454;2022-12-07T00:39:18;12.33;;;8.27;;
15293;SDS011;7748;52.474;13.454;2022-12-07T00:41:47;12.80;;;8.40;;
15293;SDS011;7748;52.474;13.454;2022-12-07T00:44:15;10.53;;;7.57;;
15293;SDS011;7748;52.474;13.454;2022-12-07T00:46:43;12.07;;;7.43;;
15293;SDS011;7748;52.474;13.454;2022-12-07T00:49:12;12.13;;;7.80;;
15293;SDS011;7748;52.474;13.454;2022-12-07T00:51:40;11.00;;;7.17;;
15293;SDS011;7748;52.474;13.454;2022-12-07T00:54:08;10.87;;;8.30;;
15293;SDS011;7748;52.474;13.454;2022-12-07T00:56:36;10.87;;;6.87;;
15293;SDS011;7748;52.474;13.454;2022-12-07T00:59:05;11.63;;;7.00;;
15293;SDS011;7748;52.474;13.454;2022-12-07T01:01:39;9.43;;;7.00;;
15293;SDS011;7748;52.474;13.454;2022-12-07T01:04:07;11.30;;;7.00;;
15293;SDS011;7748;52.474;13.454;2022-12-07T01:06:36;10.30;;;6.57;;
15293;SDS011;7748;52.474;13.454;2022-12-07T01:09:03;11.00;;;6.57;;
15293;SDS011;7748;52.474;13.454;2022-12-07T01:11:32;10.90;;;6.87;;
15293;SDS011;7748;52.474;13.454;2022-12-07T01:14:00;11.00;;;7.00;;
15293;SDS011;7748;52.474;13.454;2022-12-07T01:16:42;10.23;;;6.87;;
15293;SDS011;7748;52.474;13.454;2022-12-07T01:19:10;8.70;;;6.80;;
15293;SDS011;7748;52.474;13.454;2022-12-07T01:21:38;10.60;;;7.57;;
15293;SDS011;7748;52.474;13.454;2022-12-07T01:24:07;10.33;;;6.77;;
15293;SDS011;7748;52.474;13.454;2022-12-07T01:26:38;12.33;;;7.67;;
15293;SDS011;7748;52.474;13.454;2022-12-07T01:29:06;9.53;;;6.10;;
15293;SDS011;7748;52.474;13.454;2022-12-07T01:31:33;11.60;;;6.93;;
15293;SDS011;7748;52.474;13.454;2022-12-07T01:34:03;12.83;;;7.20;;
15293;SDS011;7748;52.474;13.454;2022-12-07T01:36:31;8.87;;;6.33;;
15293;SDS011;7748;52.474;13.454;2022-12-07T01:39:02;10.27;;;6.30;;
15293;SDS011;7748;52.474;13.454;2022-12-07T01:41:33;9.13;;;6.57;;
15293;SDS011;7748;52.474;13.454;2022-12-07T01:44:07;9.30;;;5.97;;
15293;SDS011;7748;52.474;13.454;2022-12-07T01:46:47;10.03;;;6.33;;
15293;SDS011;7748;52.474;13.454;2022-12-07T01:49:20;8.43;;;6.27;;
15293;SDS011;7748;52.474;13.454;2022-12-07T01:51:52;10.10;;;5.60;;
15293;SDS011;7748;52.474;13.454;2022-12-07T01:54:28;8.07;;;5.70;;
15293;SDS011;7748;52.474;13.454;2022-12-07T01:56:57;8.27;;;5.70;;
15293;SDS011;7748;52.474;13.454;2022-12-07T01:59:25;8.03;;;5.73;;
15293;SDS011;7748;52.474;13.454;2022-12-07T02:01:54;7.10;;;5.47;;
15293;SDS011;7748;52.474;13.454;2022-12-07T02:04:24;7.77;;;5.40;;
15293;SDS011;7748;52.474;13.454;2022-12-07T02:06:52;8.63;;;4.93;;
15293;SDS011;7748;52.474;13.454;2022-12-07T02:09:22;6.87;;;5.60;;
15293;SDS011;7748;52.474;13.454;2022-12-07T02:11:50;7.80;;;5.63;;
15293;SDS011;7748;52.474;13.454;2022-12-07T02:18:13;6.10;;;4.77;;
15293;SDS011;7748;52.474;13.454;2022-12-07T02:20:51;6.97;;;5.27;;
15293;SDS011;7748;52.474;13.454;2022-12-07T02:23:32;6.17;;;4.90;;
15293;SDS011;7748;52.474;13.454;2022-12-07T02:26:27;6.83;;;5.40;;
15293;SDS011;7748;52.474;13.454;2022-12-07T02:29:21;7.93;;;5.37;;
15293;SDS011;7748;52.474;13.454;2022-12-07T02:31:54;6.67;;;4.70;;
15293;SDS011;7748;52.474;13.454;2022-12-07T02:34:34;7.50;;;4.97;;
15293;SDS011;7748;52.474;13.454;2022-12-07T02:37:09;5.83;;;5.23;;
15293;SDS011;7748;52.474;13.454;2022-12-07T02:39:46;7.43;;;5.80;;
15293;SDS011;7748;52.474;13.454;2022-12-07T02:42:20;9.33;;;5.33;;
15293;SDS011;7748;52.474;13.454;2022-12-07T02:44:54;8.23;;;5.70;;
15293;SDS011;7748;52.474;13.454;2022-12-07T02:47:22;8.77;;;5.93;;
15293;SDS011;7748;52.474;13.454;2022-12-07T02:49:52;7.87;;;5.30;;
15293;SDS011;7748;52.474;13.454;2022-12-07T02:52:20;7.60;;;5.40;;
15293;SDS011;7748;52.474;13.454;2022-12-07T02:54:48;11.10;;;5.93;;
15293;SDS011;7748;52.474;13.454;2022-12-07T02:57:36;8.30;;;5.73;;
15293;SDS011;7748;52.474;13.454;2022-12-07T03:00:17;8.90;;;5.63;;
15293;SDS011;7748;52.474;13.454;2022-12-07T03:02:50;9.90;;;5.93;;
15293;SDS011;7748;52.474;13.454;2022-12-07T03:08:23;9.17;;;5.83;;
15293;SDS011;7748;52.474;13.454;2022-12-07T03:10:59;8.97;;;5.83;;
15293;SDS011;7748;52.474;13.454;2022-12-07T03:13:32;10.23;;;6.23;;
15293;SDS011;7748;52.474;13.454;2022-12-07T03:16:09;8.23;;;6.23;;
15293;SDS011;7748;52.474;13.454;2022-12-07T03:18:54;7.17;;;5.40;;
15293;SDS011;7748;52.474;13.454;2022-12-07T03:21:27;11.67;;;6.73;;
15293;SDS011;7748;52.474;13.454;2022-12-07T03:24:00;8.83;;;5.80;;
15293;SDS011;7748;52.474;13.454;2022-12-07T03:26:34;8.20;;;5.83;;
15293;SDS011;7748;52.474;13.454;2022-12-07T03:29:05;9.70;;;6.73;;
15293;SDS011;7748;52.474;13.454;2022-12-07T03:31:42;8.07;;;6.40;;
15293;SDS011;7748;52.474;13.454;2022-12-07T03:34:16;8.70;;;6.40;;
15293;SDS011;7748;52.474;13.454;2022-12-07T03:36:50;10.63;;;7.00;;
15293;SDS011;7748;52.474;13.454;2022-12-07T03:39:24;11.93;;;7.17;;
15293;SDS011;7748;52.474;13.454;2022-12-07T03:41:58;10.40;;;7.63;;
15293;SDS011;7748;52.474;13.454;2022-12-07T03:44:29;9.93;;;7.50;;
15293;SDS011;7748;52.474;13.454;2022-12-07T03:47:00;11.37;;;7.10;;
15293;SDS011;7748;52.474;13.454;2022-12-07T03:49:32;12.63;;;7.67;;
15293;SDS011;7748;52.474;13.454;2022-12-07T03:52:08;14.30;;;7.93;;
15293;SDS011;7748;52.474;13.454;2022-12-07T03:54:46;12.20;;;7.83;;
15293;SDS011;7748;52.474;13.454;2022-12-07T03:57:19;11.17;;;6.67;;
15293;SDS011;7748;52.474;13.454;2022-12-07T03:59:49;10.07;;;6.97;;
15293;SDS011;7748;52.474;13.454;2022-12-07T04:02:20;10.50;;;7.30;;
15293;SDS011;7748;52.474;13.454;2022-12-07T04:04:48;11.60;;;7.47;;
15293;SDS011;7748;52.474;13.454;2022-12-07T04:07:16;12.17;;;7.63;;
15293;SDS011;7748;52.474;13.454;2022-12-07T04:09:44;11.23;;;7.43;;
15293;SDS011;7748;52.474;13.454;2022-12-07T04:12:12;12.10;;;8.23;;
15293;SDS011;7748;52.474;13.454;2022-12-07T04:14:40;12.53;;;7.87;;
15293;SDS011;7748;52.474;13.454;2022-12-07T04:17:08;10.83;;;7.17;;
15293;SDS011;7748;52.474;13.454;2022-12-07T04:19:38;12.93;;;7.90;;
15293;SDS011;7748;52.474;13.454;2022-12-07T04:22:06;14.43;;;8.57;;
15293;SDS011;7748;52.474;13.454;2022-12-07T04:24:34;13.13;;;8.83;;
15293;SDS011;7748;52.474;13.454;2022-12-07T04:27:02;14.13;;;8.63;;
15293;SDS011;7748;52.474;13.454;2022-12-07T04:29:30;18.17;;;8.97;;
15293;SDS011;7748;52.474;13.454;2022-12-07T04:35:51;16.97;;;10.27;;
15293;SDS011;7748;52.474;13.454;2022-12-07T04:38:19;18.57;;;10.23;;
15293;SDS011;7748;52.474;13.454;2022-12-07T04:40:47;17.37;;;9.83;;
15293;SDS011;7748;52.474;13.454;2022-12-07T04:43:15;13.70;;;9.83;;
15293;SDS011;7748;52.474;13.454;2022-12-07T04:45:45;17.53;;;10.37;;
15293;SDS011;7748;52.474;13.454;2022-12-07T04:48:14;18.03;;;9.93;;
15293;SDS011;7748;52.474;13.454;2022-12-07T04:50:42;19.30;;;10.43;;
15293;SDS011;7748;52.474;13.454;2022-12-07T04:53:13;20.73;;;11.10;;
15293;SDS011;7748;52.474;13.454;2022-12-07T04:55:41;18.67;;;11.63;;
15293;SDS011;7748;52.474;13.454;2022-12-07T04:58:09;23.70;;;13.53;;
15293;SDS011;7748;52.474;13.454;2022-12-07T05:00:37;19.00;;;11.93;;
15293;SDS011;7748;52.474;13.454;2022-12-07T05:03:05;22.97;;;12.40;;
15293;SDS011;7748;52.474;13.454;2022-12-07T05:05:33;21.43;;;12.10;;
15293;SDS011;7748;52.474;13.454;2022-12-07T05:08:01;25.40;;;12.87;;
15293;SDS011;7748;52.474;13.454;2022-12-07T05:10:30;20.00;;;11.53;;
15293;SDS011;7748;52.474;13.454;2022-12-07T05:12:58;21.97;;;11.97;;
15293;SDS011;7748;52.474;13.454;2022-12-07T05:15:26;22.03;;;12.67;;
15293;SDS011;7748;52.474;13.454;2022-12-07T05:17:54;19.90;;;12.40;;
15293;SDS011;7748;52.474;13.454;2022-12-07T05:20:22;20.60;;;11.03;;
15293;SDS011;7748;52.474;13.454;2022-12-07T05:22:50;19.87;;;11.67;;
15293;SDS011;7748;52.474;13.454;2022-12-07T05:25:18;18.80;;;11.53;;
15293;SDS011;7748;52.474;13.454;2022-12-07T05:27:47;21.63;;;12.93;;
15293;SDS011;7748;52.474;13.454;2022-12-07T05:30:15;20.47;;;11.97;;
15293;SDS011;7748;52.474;13.454;2022-12-07T05:32:44;18.47;;;12.10;;
15293;SDS011;7748;52.474;13.454;2022-12-07T05:35:12;21.07;;;11.30;;
15293;SDS011;7748;52.474;13.454;2022-12-07T05:37:40;23.37;;;13.67;;
15293;SDS011;7748;52.474;13.454;2022-12-07T05:40:08;20.83;;;12.43;;
15293;SDS011;7748;52.474;13.454;2022-12-07T05:42:37;20.80;;;12.73;;
15293;SDS011;7748;52.474;13.454;2022-12-07T05:45:08;26.00;;;12.60;;
15293;SDS011;7748;52.474;13.454;2022-12-07T05:47:37;19.23;;;11.13;;
15293;SDS011;7748;52.474;13.454;2022-12-07T05:50:06;25.30;;;13.03;;
15293;SDS011;7748;52.474;13.454;2022-12-07T05:52:34;22.07;;;13.70;;
15293;SDS011;7748;52.474;13.454;2022-12-07T05:55:03;24.20;;;14.00;;
15293;SDS011;7748;52.474;13.454;2022-12-07T05:57:33;24.77;;;13.30;;
15293;SDS011;7748;52.474;13.454;2022-12-07T06:00:03;24.30;;;12.83;;
15293;SDS011;7748;52.474;13.454;2022-12-07T06:02:32;23.10;;;12.70;;
15293;SDS011;7748;52.474;13.454;2022-12-07T06:05:01;20.77;;;12.27;;
15293;SDS011;7748;52.474;13.454;2022-12-07T06:07:30;25.17;;;13.03;;
15293;SDS011;7748;52.474;13.454;2022-12-07T06:09:58;26.43;;;13.47;;
15293;SDS011;7748;52.474;13.454;2022-12-07T06:12:26;24.87;;;13.40;;
15293;SDS011;7748;52.474;13.454;2022-12-07T06:15:00;25.97;;;13.90;;
15293;SDS011;7748;52.474;13.454;2022-12-07T06:17:27;26.03;;;13.60;;
15293;SDS011;7748;52.474;13.454;2022-12-07T06:19:57;27.80;;;13.40;;
15293;SDS011;7748;52.474;13.454;2022-12-07T06:22:25;24.20;;;13.83;;
15293;SDS011;7748;52.474;13.454;2022-12-07T06:24:54;27.00;;;13.63;;
15293;SDS011;7748;52.474;13.454;2022-12-07T06:27:22;24.97;;;14.20;;
15293;SDS011;7748;52.474;13.454;2022-12-07T06:29:51;29.97;;;15.47;;
15293;SDS011;7748;52.474;13.454;2022-12-07T06:32:19;29.33;;;14.90;;
15293;SDS011;7748;52.474;13.454;2022-12-07T06:34:47;31.20;;;16.47;;
15293;SDS011;7748;52.474;13.454;2022-12-07T06:37:16;23.87;;;13.80;;
15293;SDS011;7748;52.474;13.454;2022-12-07T06:39:44;27.67;;;14.50;;
15293;SDS011;7748;52.474;13.454;2022-12-07T06:42:12;21.67;;;12.57;;
15293;SDS011;7748;52.474;13.454;2022-12-07T06:44:40;21.23;;;12.67;;
15293;SDS011;7748;52.474;13.454;2022-12-07T06:47:10;27.40;;;14.13;;
15293;SDS011;7748;52.474;13.454;2022-12-07T06:49:59;24.43;;;14.27;;
15293;SDS011;7748;52.474;13.454;2022-12-07T06:52:29;26.17;;;13.03;;
15293;SDS011;7748;52.474;13.454;2022-12-07T06:54:57;28.43;;;14.73;;
15293;SDS011;7748;52.474;13.454;2022-12-07T06:57:25;22.70;;;13.90;;
15293;SDS011;7748;52.474;13.454;2022-12-07T06:59:53;25.63;;;14.10;;
15293;SDS011;7748;52.474;13.454;2022-12-07T07:02:22;30.00;;;14.50;;
15293;SDS011;7748;52.474;13.454;2022-12-07T07:04:50;31.20;;;14.97;;
15293;SDS011;7748;52.474;13.454;2022-12-07T07:07:18;26.50;;;16.27;;
15293;SDS011;7748;52.474;13.454;2022-12-07T07:09:49;26.80;;;14.67;;
15293;SDS011;7748;52.474;13.454;2022-12-07T07:12:17;28.13;;;16.77;;
15293;SDS011;7748;52.474;13.454;2022-12-07T07:14:45;30.30;;;15.77;;
15293;SDS011;7748;52.474;13.454;2022-12-07T07:17:16;25.17;;;14.57;;
15293;SDS011;7748;52.474;13.454;2022-12-07T07:19:44;30.50;;;14.57;;
15293;SDS011;7748;52.474;13.454;2022-12-07T07:22:12;25.73;;;13.07;;
15293;SDS011;7748;52.474;13.454;2022-12-07T07:24:41;25.90;;;14.93;;
15293;SDS011;7748;52.474;13.454;2022-12-07T07:27:12;25.70;;;15.10;;
15293;SDS011;7748;52.474;13.454;2022-12-07T07:29:41;25.57;;;15.27;;
15293;SDS011;7748;52.474;13.454;2022-12-07T07:32:09;25.90;;;14.53;;
15293;SDS011;7748;52.474;13.454;2022-12-07T07:34:39;26.23;;;13.03;;
15293;SDS011;7748;52.474;13.454;2022-12-07T07:37:07;23.97;;;13.10;;
15293;SDS011;7748;52.474;13.454;2022-12-07T07:39:37;22.63;;;13.00;;
15293;SDS011;7748;52.474;13.454;2022-12-07T07:42:05;19.57;;;11.93;;
15293;SDS011;7748;52.474;13.454;2022-12-07T07:44:35;21.40;;;12.27;;
15293;SDS011;7748;52.474;13.454;2022-12-07T07:47:03;21.87;;;11.87;;
15293;SDS011;7748;52.474;13.454;2022-12-07T07:49:31;16.60;;;10.00;;
15293;SDS011;7748;52.474;13.454;2022-12-07T07:52:00;20.03;;;11.07;;
15293;SDS011;7748;52.474;13.454;2022-12-07T07:54:28;17.80;;;10.17;;
15293;SDS011;7748;52.474;13.454;2022-12-07T07:56:56;18.80;;;9.87;;
15293;SDS011;7748;52.474;13.454;2022-12-07T07:59:24;18.53;;;10.50;;
15293;SDS011;7748;52.474;13.454;2022-12-07T08:01:54;21.07;;;11.67;;
15293;SDS011;7748;52.474;13.454;2022-12-07T08:04:22;21.37;;;11.80;;
15293;SDS011;7748;52.474;13.454;2022-12-07T08:06:52;19.63;;;12.57;;
15293;SDS011;7748;52.474;13.454;2022-12-07T08:09:21;15.57;;;9.50;;
15293;SDS011;7748;52.474;13.454;2022-12-07T08:11:49;21.57;;;11.83;;
15293;SDS011;7748;52.474;13.454;2022-12-07T08:14:17;13.87;;;7.27;;
15293;SDS011;7748;52.474;13.454;2022-12-07T08:16:45;13.50;;;8.00;;
15293;SDS011;7748;52.474;13.454;2022-12-07T08:19:15;12.73;;;7.20;;
15293;SDS011;7748;52.474;13.454;2022-12-07T08:21:43;15.00;;;7.40;;
15293;SDS011;7748;52.474;13.454;2022-12-07T08:24:13;12.07;;;7.17;;
15293;SDS011;7748;52.474;13.454;2022-12-07T08:26:41;13.03;;;7.63;;
15293;SDS011;7748;52.474;13.454;2022-12-07T08:29:10;10.50;;;7.17;;
15293;SDS011;7748;52.474;13.454;2022-12-07T08:31:39;9.77;;;6.90;;
15293;SDS011;7748;52.474;13.454;2022-12-07T08:34:09;9.83;;;5.93;;
15293;SDS011;7748;52.474;13.454;2022-12-07T08:36:39;11.80;;;5.90;;
15293;SDS011;7748;52.474;13.454;2022-12-07T08:39:07;10.77;;;6.40;;
15293;SDS011;7748;52.474;13.454;2022-12-07T08:41:57;8.97;;;5.70;;
15293;SDS011;7748;52.474;13.454;2022-12-07T08:44:26;9.50;;;5.17;;
15293;SDS011;7748;52.474;13.454;2022-12-07T08:46:55;6.33;;;4.40;;
15293;SDS011;7748;52.474;13.454;2022-12-07T08:49:27;6.37;;;4.43;;
15293;SDS011;7748;52.474;13.454;2022-12-07T08:52:01;4.23;;;3.40;;
15293;SDS011;7748;52.474;13.454;2022-12-07T08:54:32;4.73;;;2.70;;
15293;SDS011;7748;52.474;13.454;2022-12-07T08:57:02;3.00;;;2.80;;
15293;SDS011;7748;52.474;13.454;2022-12-07T08:59:32;2.30;;;2.10;;
15293;SDS011;7748;52.474;13.454;2022-12-07T09:02:03;3.17;;;2.43;;
15293;SDS011;7748;52.474;13.454;2022-12-07T09:04:31;3.00;;;2.50;;
15293;SDS011;7748;52.474;13.454;2022-12-07T09:07:00;2.77;;;2.53;;
15293;SDS011;7748;52.474;13.454;2022-12-07T09:09:30;5.17;;;3.03;;
15293;SDS011;7748;52.474;13.454;2022-12-07T09:12:02;4.53;;;2.90;;
15293;SDS011;7748;52.474;13.454;2022-12-07T09:14:30;2.63;;;2.43;;
15293;SDS011;7748;52.474;13.454;2022-12-07T09:17:04;4.33;;;2.30;;
15293;SDS011;7748;52.474;13.454;2022-12-07T09:19:32;3.00;;;1.80;;
15293;SDS011;7748;52.474;13.454;2022-12-07T09:22:02;2.67;;;2.10;;
15293;SDS011;7748;52.474;13.454;2022-12-07T09:24:30;2.53;;;2.20;;
15293;SDS011;7748;52.474;13.454;2022-12-07T09:26:59;2.50;;;2.23;;
15293;SDS011;7748;52.474;13.454;2022-12-07T09:29:28;2.63;;;2.17;;
15293;SDS011;7748;52.474;13.454;2022-12-07T09:31:56;2.43;;;2.07;;
15293;SDS011;7748;52.474;13.454;2022-12-07T09:34:24;2.20;;;2.00;;
15293;SDS011;7748;52.474;13.454;2022-12-07T09:37:00;2.20;;;2.00;;
15293;SDS011;7748;52.474;13.454;2022-12-07T09:39:30;1.80;;;1.70;;
15293;SDS011;7748;52.474;13.454;2022-12-07T09:41:59;2.23;;;2.03;;
15293;SDS011;7748;52.474;13.454;2022-12-07T09:44:32;4.70;;;2.80;;
15293;SDS011;7748;52.474;13.454;2022-12-07T09:47:03;4.07;;;3.10;;
15293;SDS011;7748;52.474;13.454;2022-12-07T09:49:31;4.40;;;3.00;;
15293;SDS011;7748;52.474;13.454;2022-12-07T09:52:00;3.63;;;2.70;;
15293;SDS011;7748;52.474;13.454;2022-12-07T09:54:33;3.07;;;2.57;;
15293;SDS011;7748;52.474;13.454;2022-12-07T09:57:04;3.90;;;2.80;;
15293;SDS011;7748;52.474;13.454;2022-12-07T09:59:32;2.73;;;2.53;;
15293;SDS011;7748;52.474;13.454;2022-12-07T10:02:19;2.17;;;1.97;;
15293;SDS011;7748;52.474;13.454;2022-12-07T10:04:57;4.53;;;2.40;;
15293;SDS011;7748;52.474;13.454;2022-12-07T10:07:27;4.00;;;2.60;;
15293;SDS011;7748;52.474;13.454;2022-12-07T10:10:01;2.77;;;2.10;;
15293;SDS011;7748;52.474;13.454;2022-12-07T10:12:30;4.50;;;2.73;;
15293;SDS011;7748;52.474;13.454;2022-12-07T10:15:39;8.53;;;3.03;;
15293;SDS011;7748;52.474;13.454;2022-12-07T10:18:19;2.17;;;1.97;;
15293;SDS011;7748;52.474;13.454;2022-12-07T10:21:10;4.37;;;3.10;;
15293;SDS011;7748;52.474;13.454;2022-12-07T10:23:41;3.73;;;2.43;;
15293;SDS011;7748;52.474;13.454;2022-12-07T10:26:29;4.93;;;2.83;;
15293;SDS011;7748;52.474;13.454;2022-12-07T10:28:59;7.47;;;3.80;;
15293;SDS011;7748;52.474;13.454;2022-12-07T10:31:42;5.57;;;2.93;;
15293;SDS011;7748;52.474;13.454;2022-12-07T10:34:15;4.50;;;3.30;;
15293;SDS011;7748;52.474;13.454;2022-12-07T10:36:51;3.83;;;2.77;;
15293;SDS011;7748;52.474;13.454;2022-12-07T10:39:21;4.40;;;3.10;;
15293;SDS011;7748;52.474;13.454;2022-12-07T10:41:55;4.20;;;3.00;;
15293;SDS011;7748;52.474;13.454;2022-12-07T10:44:25;8.67;;;3.23;;
15293;SDS011;7748;52.474;13.454;2022-12-07T10:47:11;4.63;;;3.20;;
15293;SDS011;7748;52.474;13.454;2022-12-07T10:49:55;3.63;;;2.80;;
15293;SDS011;7748;52.474;13.454;2022-12-07T10:52:39;5.83;;;3.00;;
15293;SDS011;7748;52.474;13.454;2022-12-07T10:55:21;4.93;;;3.50;;
15293;SDS011;7748;52.474;13.454;2022-12-07T10:57:59;3.10;;;2.60;;
15293;SDS011;7748;52.474;13.454;2022-12-07T11:00:41;3.33;;;3.07;;
15293;SDS011;7748;52.474;13.454;2022-12-07T11:03:21;3.73;;;2.73;;
15293;SDS011;7748;52.474;13.454;2022-12-07T11:06:00;4.77;;;3.27;;
15293;SDS011;7748;52.474;13.454;2022-12-07T11:08:42;3.63;;;3.13;;
15293;SDS011;7748;52.474;13.454;2022-12-07T11:11:19;5.43;;;2.50;;
15293;SDS011;7748;52.474;13.454;2022-12-07T11:13:59;5.23;;;3.53;;
15293;SDS011;7748;52.474;13.454;2022-12-07T11:16:40;6.17;;;3.70;;
15293;SDS011;7748;52.474;13.454;2022-12-07T11:19:23;3.73;;;3.10;;
15293;SDS011;7748;52.474;13.454;2022-12-07T11:21:58;4.07;;;3.20;;
15293;SDS011;7748;52.474;13.454;2022-12-07T11:24:32;6.17;;;3.67;;
15293;SDS011;7748;52.474;13.454;2022-12-07T11:27:11;4.63;;;3.70;;
15293;SDS011;7748;52.474;13.454;2022-12-07T11:29:51;4.33;;;3.63;;
15293;SDS011;7748;52.474;13.454;2022-12-07T11:32:34;6.00;;;3.83;;
15293;SDS011;7748;52.474;13.454;2022-12-07T11:35:15;5.03;;;3.33;;
15293;SDS011;7748;52.474;13.454;2022-12-07T11:37:59;6.27;;;4.60;;
15293;SDS011;7748;52.474;13.454;2022-12-07T11:40:35;3.43;;;3.07;;
15293;SDS011;7748;52.474;13.454;2022-12-07T11:43:05;4.47;;;3.80;;
15293;SDS011;7748;52.474;13.454;2022-12-07T11:45:42;5.63;;;3.90;;
15293;SDS011;7748;52.474;13.454;2022-12-07T11:48:14;5.10;;;3.50;;
15293;SDS011;7748;52.474;13.454;2022-12-07T11:50:48;6.43;;;3.83;;
15293;SDS011;7748;52.474;13.454;2022-12-07T11:53:20;5.67;;;3.80;;
15293;SDS011;7748;52.474;13.454;2022-12-07T11:55:52;4.37;;;3.10;;
15293;SDS011;7748;52.474;13.454;2022-12-07T11:58:38;5.57;;;3.70;;
15293;SDS011;7748;52.474;13.454;2022-12-07T12:01:21;8.73;;;5.13;;
15293;SDS011;7748;52.474;13.454;2022-12-07T12:03:58;5.53;;;3.60;;
15293;SDS011;7748;52.474;13.454;2022-12-07T12:06:33;7.30;;;3.97;;
15293;SDS011;7748;52.474;13.454;2022-12-07T12:09:02;6.47;;;3.30;;
15293;SDS011;7748;52.474;13.454;2022-12-07T12:12:01;4.70;;;3.33;;
15293;SDS011;7748;52.474;13.454;2022-12-07T12:15:09;5.93;;;2.93;;
15293;SDS011;7748;52.474;13.454;2022-12-07T12:18:07;3.87;;;2.50;;
15293;SDS011;7748;52.474;13.454;2022-12-07T12:20:52;5.73;;;3.03;;
15293;SDS011;7748;52.474;13.454;2022-12-07T12:23:27;6.37;;;3.50;;
15293;SDS011;7748;52.474;13.454;2022-12-07T12:26:03;4.30;;;3.13;;
15293;SDS011;7748;52.474;13.454;2022-12-07T12:28:35;6.23;;;2.60;;
15293;SDS011;7748;52.474;13.454;2022-12-07T12:31:16;5.77;;;2.90;;
15293;SDS011;7748;52.474;13.454;2022-12-07T12:34:03;3.70;;;2.73;;
15293;SDS011;7748;52.474;13.454;2022-12-07T12:36:52;4.03;;;2.60;;
15293;SDS011;7748;52.474;13.454;2022-12-07T12:39:21;3.47;;;2.40;;
15293;SDS011;7748;52.474;13.454;2022-12-07T12:41:53;4.70;;;2.90;;
15293;SDS011;7748;52.474;13.454;2022-12-07T12:44:39;8.93;;;2.73;;
15293;SDS011;7748;52.474;13.454;2022-12-07T12:47:38;5.27;;;3.37;;
15293;SDS011;7748;52.474;13.454;2022-12-07T12:50:17;6.17;;;2.47;;
15293;SDS011;7748;52.474;13.454;2022-12-07T12:52:57;6.27;;;2.73;;
15293;SDS011;7748;52.474;13.454;2022-12-07T12:58:34;5.20;;;2.70;;
15293;SDS011;7748;52.474;13.454;2022-12-07T13:10:24;3.93;;;2.70;;
15293;SDS011;7748;52.474;13.454;2022-12-07T13:25:09;10.40;;;3.70;;
15293;SDS011;7748;52.474;13.454;2022-12-07T13:27:41;9.30;;;3.60;;
15293;SDS011;7748;52.474;13.454;2022-12-07T13:30:17;4.93;;;3.00;;
15293;SDS011;7748;52.474;13.454;2022-12-07T13:32:50;7.07;;;2.90;;
15293;SDS011;7748;52.474;13.454;2022-12-07T13:35:30;6.37;;;2.83;;
15293;SDS011;7748;52.474;13.454;2022-12-07T13:38:01;3.50;;;3.20;;
15293;SDS011;7748;52.474;13.454;2022-12-07T13:40:33;4.40;;;2.80;;
15293;SDS011;7748;52.474;13.454;2022-12-07T13:43:04;5.07;;;2.70;;
15293;SDS011;7748;52.474;13.454;2022-12-07T13:45:41;4.13;;;2.40;;
15293;SDS011;7748;52.474;13.454;2022-12-07T13:48:20;8.00;;;3.10;;
15293;SDS011;7748;52.474;13.454;2022-12-07T13:50:53;5.23;;;2.80;;
15293;SDS011;7748;52.474;13.454;2022-12-07T13:53:23;4.67;;;2.80;;
15293;SDS011;7748;52.474;13.454;2022-12-07T13:55:55;8.07;;;2.53;;
15293;SDS011;7748;52.474;13.454;2022-12-07T13:58:25;3.80;;;2.50;;
15293;SDS011;7748;52.474;13.454;2022-12-07T14:00:57;4.03;;;2.67;;
15293;SDS011;7748;52.474;13.454;2022-12-07T14:03:30;5.00;;;2.73;;
15293;SDS011;7748;52.474;13.454;2022-12-07T14:06:04;4.60;;;2.27;;
15293;SDS011;7748;52.474;13.454;2022-12-07T14:08:39;3.23;;;2.60;;
15293;SDS011;7748;52.474;13.454;2022-12-07T14:11:07;3.70;;;2.40;;
15293;SDS011;7748;52.474;13.454;2022-12-07T14:13:44;17.10;;;8.10;;
15293;SDS011;7748;52.474;13.454;2022-12-07T14:16:22;7.50;;;3.30;;
15293;SDS011;7748;52.474;13.454;2022-12-07T14:18:52;4.40;;;2.70;;
15293;SDS011;7748;52.474;13.454;2022-12-07T14:21:21;4.77;;;2.80;;
15293;SDS011;7748;52.474;13.454;2022-12-07T14:24:08;6.23;;;3.67;;
15293;SDS011;7748;52.474;13.454;2022-12-07T14:26:46;3.50;;;2.37;;
15293;SDS011;7748;52.474;13.454;2022-12-07T14:29:21;5.07;;;2.43;;
15293;SDS011;7748;52.474;13.454;2022-12-07T14:31:57;5.77;;;2.53;;
15293;SDS011;7748;52.474;13.454;2022-12-07T14:34:26;6.77;;;2.70;;
15293;SDS011;7748;52.474;13.454;2022-12-07T14:36:54;4.80;;;2.60;;
15293;SDS011;7748;52.474;13.454;2022-12-07T14:39:22;5.70;;;2.80;;
15293;SDS011;7748;52.474;13.454;2022-12-07T14:41:50;11.07;;;3.23;;
15293;SDS011;7748;52.474;13.454;2022-12-07T14:44:20;4.90;;;3.20;;
15293;SDS011;7748;52.474;13.454;2022-12-07T14:46:55;9.47;;;2.60;;
15293;SDS011;7748;52.474;13.454;2022-12-07T14:49:43;5.43;;;2.80;;
15293;SDS011;7748;52.474;13.454;2022-12-07T14:52:13;6.40;;;2.70;;
15293;SDS011;7748;52.474;13.454;2022-12-07T14:55:04;6.93;;;2.73;;
15293;SDS011;7748;52.474;13.454;2022-12-07T14:57:39;5.53;;;2.83;;
15293;SDS011;7748;52.474;13.454;2022-12-07T15:00:12;6.40;;;3.13;;
15293;SDS011;7748;52.474;13.454;2022-12-07T15:02:42;6.57;;;2.43;;
15293;SDS011;7748;52.474;13.454;2022-12-07T15:05:15;6.73;;;2.60;;
15293;SDS011;7748;52.474;13.454;2022-12-07T15:08:11;4.87;;;2.13;;
15293;SDS011;7748;52.474;13.454;2022-12-07T15:10:42;10.90;;;3.47;;
15293;SDS011;7748;52.474;13.454;2022-12-07T15:13:11;4.13;;;2.20;;
15293;SDS011;7748;52.474;13.454;2022-12-07T15:24:02;11.83;;;3.13;;
15293;SDS011;7748;52.474;13.454;2022-12-07T15:26:33;8.00;;;2.70;;
15293;SDS011;7748;52.474;13.454;2022-12-07T15:29:02;8.23;;;2.80;;
15293;SDS011;7748;52.474;13.454;2022-12-07T15:31:30;5.93;;;2.73;;
15293;SDS011;7748;52.474;13.454;2022-12-07T15:34:20;5.57;;;2.83;;
15293;SDS011;7748;52.474;13.454;2022-12-07T15:36:49;6.37;;;2.60;;
15293;SDS011;7748;52.474;13.454;2022-12-07T15:39:21;5.00;;;2.50;;
15293;SDS011;7748;52.474;13.454;2022-12-07T15:41:50;13.80;;;3.20;;
15293;SDS011;7748;52.474;13.454;2022-12-07T15:44:18;6.90;;;2.80;;
15293;SDS011;7748;52.474;13.454;2022-12-07T15:47:04;8.23;;;4.70;;
15293;SDS011;7748;52.474;13.454;2022-12-07T15:49:34;2.87;;;2.43;;
15293;SDS011;7748;52.474;13.454;2022-12-07T15:55:56;9.07;;;4.33;;
15293;SDS011;7748;52.474;13.454;2022-12-07T15:58:42;13.13;;;3.83;;